createdAt,value
2023-01-08T00:01:08.026Z,100272.44
2023-01-08T00:03:35.235Z,100268.50
2023-01-08T00:06:04.250Z,100266.03
2023-01-08T00:08:32.106Z,100267.16
2023-01-08T00:10:59.355Z,100264.41
2023-01-08T00:13:26.739Z,100266.56
2023-01-08T00:15:54.066Z,100251.94
2023-01-08T00:18:21.048Z,100243.59
2023-01-08T00:20:49.125Z,100247.56
2023-01-08T00:23:18.784Z,100244.75
2023-01-08T00:25:46.047Z,100243.75
2023-01-08T00:28:15.090Z,100234.56
2023-01-08T00:30:42.310Z,100234.94
2023-01-08T00:33:10.047Z,100235.69
2023-01-08T00:35:40.553Z,100232.59
2023-01-08T00:38:07.793Z,100232.94
2023-01-08T00:40:36.078Z,100230.75
2023-01-08T00:43:03.329Z,100231.03
2023-01-08T00:45:30.220Z,100233.88
2023-01-08T00:47:57.354Z,100240.25
2023-01-08T00:50:24.527Z,100220.38
2023-01-08T00:52:51.303Z,100217.16
2023-01-08T00:55:18.488Z,100225.78
2023-01-08T00:57:45.458Z,100236.44
2023-01-08T01:00:15.000Z,100231.91
2023-01-08T01:02:41.994Z,100228.31
2023-01-08T01:05:10.021Z,100229.94
2023-01-08T01:07:37.147Z,100224.72
2023-01-08T01:10:04.075Z,100225.28
2023-01-08T01:12:30.892Z,100220.66
2023-01-08T01:14:57.614Z,100206.19
2023-01-08T01:17:24.532Z,100207.16
2023-01-08T01:19:51.375Z,100205.19
2023-01-08T01:22:18.173Z,100198.69
2023-01-08T01:24:45.052Z,100205.56
2023-01-08T01:27:11.889Z,100200.31
2023-01-08T01:29:38.698Z,100196.31
2023-01-08T01:32:06.257Z,100204.59
2023-01-08T01:34:33.191Z,100207.63
2023-01-08T01:36:59.965Z,100205.00
2023-01-08T01:39:26.761Z,100194.16
2023-01-08T01:41:53.666Z,100204.59
2023-01-08T01:44:39.650Z,100197.31
2023-01-08T01:47:13.568Z,100188.75
2023-01-08T01:49:43.832Z,100180.25
2023-01-08T01:52:12.158Z,100179.31
2023-01-08T01:54:39.206Z,100175.97
2023-01-08T01:57:08.460Z,100179.78
2023-01-08T01:59:35.271Z,100180.53
2023-01-08T02:02:02.672Z,100190.25
2023-01-08T02:04:29.508Z,100192.25
2023-01-08T02:07:06.161Z,100188.41
2023-01-08T02:09:48.308Z,100182.91
2023-01-08T02:12:50.814Z,100185.13
2023-01-08T02:15:47.334Z,100179.31
2023-01-08T02:18:20.146Z,100180.06
2023-01-08T02:20:52.651Z,100191.88
2023-01-08T02:24:03.257Z,100185.94
2023-01-08T02:26:32.298Z,100188.06
2023-01-08T02:29:04.936Z,100185.09
2023-01-08T02:31:33.602Z,100187.84
2023-01-08T02:34:00.268Z,100191.03
2023-01-08T02:36:43.693Z,100175.09
2023-01-08T02:39:51.874Z,100178.94
2023-01-08T02:42:36.731Z,100180.56
2023-01-08T02:45:18.635Z,100185.84
2023-01-08T02:47:50.550Z,100176.25
2023-01-08T02:50:25.271Z,100167.00
2023-01-08T02:53:11.486Z,100168.88
2023-01-08T02:55:41.488Z,100155.28
2023-01-08T02:58:09.134Z,100158.38
2023-01-08T03:00:37.072Z,100162.97
2023-01-08T03:03:14.541Z,100164.69
2023-01-08T03:05:43.631Z,100165.44
2023-01-08T03:08:12.568Z,100161.25
2023-01-08T03:10:42.203Z,100151.72
2023-01-08T03:13:17.190Z,100158.91
2023-01-08T03:15:50.742Z,100151.16
2023-01-08T03:18:24.468Z,100145.53
2023-01-08T03:20:51.484Z,100144.72
2023-01-08T03:23:20.007Z,100148.88
2023-01-08T03:25:48.526Z,100158.50
2023-01-08T03:28:23.987Z,100159.50
2023-01-08T03:30:53.247Z,100157.25
2023-01-08T03:33:20.315Z,100162.28
2023-01-08T03:35:50.194Z,100166.28
2023-01-08T03:38:29.502Z,100177.13
2023-01-08T03:41:01.022Z,100170.69
2023-01-08T03:43:29.206Z,100162.47
2023-01-08T03:46:00.626Z,100165.13
2023-01-08T03:48:33.117Z,100184.09
2023-01-08T03:51:00.171Z,100179.31
2023-01-08T03:53:27.866Z,100173.41
2023-01-08T03:55:54.938Z,100170.81
2023-01-08T03:58:21.535Z,100182.97
2023-01-08T04:00:48.237Z,100183.00
2023-01-08T04:03:14.895Z,100192.50
2023-01-08T04:05:41.725Z,100182.63
2023-01-08T04:08:08.437Z,100177.00
2023-01-08T04:10:35.225Z,100180.69
2023-01-08T04:13:01.948Z,100175.72
2023-01-08T04:15:28.881Z,100171.34
2023-01-08T04:17:55.619Z,100166.16
2023-01-08T04:20:22.285Z,100153.84
2023-01-08T04:22:49.066Z,100155.09
2023-01-08T04:25:15.788Z,100142.91
2023-01-08T04:27:42.435Z,100144.63
2023-01-08T04:30:09.889Z,100135.81
2023-01-08T04:32:36.541Z,100134.28
2023-01-08T04:35:04.044Z,100126.91
2023-01-08T04:37:30.703Z,100117.16
2023-01-08T04:39:57.559Z,100120.09
2023-01-08T04:42:24.339Z,100115.53
2023-01-08T04:44:50.960Z,100107.63
2023-01-08T04:47:17.595Z,100105.81
2023-01-08T04:49:44.396Z,100088.47
2023-01-08T04:52:11.100Z,100082.63
2023-01-08T04:54:37.777Z,100081.97
2023-01-08T04:57:04.557Z,100086.13
2023-01-08T04:59:31.274Z,100079.84
2023-01-08T05:01:59.161Z,100069.66
2023-01-08T05:04:25.881Z,100072.22
2023-01-08T05:06:52.651Z,100066.47
2023-01-08T05:09:19.361Z,100055.69
2023-01-08T05:11:46.008Z,100064.16
2023-01-08T05:14:12.812Z,100058.00
2023-01-08T05:16:39.620Z,100057.59
2023-01-08T05:19:06.369Z,100057.09
2023-01-08T05:21:33.179Z,100069.59
2023-01-08T05:23:59.837Z,100048.50
2023-01-08T05:26:26.910Z,100043.53
2023-01-08T05:28:53.784Z,100032.94
2023-01-08T05:31:20.561Z,100034.16
2023-01-08T05:33:48.111Z,100019.97
2023-01-08T05:36:15.002Z,100012.97
2023-01-08T05:38:41.755Z,100002.44
2023-01-08T05:41:09.740Z,99998.78
2023-01-08T05:43:37.157Z,100014.56
2023-01-08T05:46:04.629Z,100019.84
2023-01-08T05:48:33.519Z,100015.72
2023-01-08T05:51:00.339Z,99997.72
2023-01-08T05:53:27.184Z,99996.69
2023-01-08T05:56:02.055Z,100001.91
2023-01-08T05:58:28.903Z,99996.25
2023-01-08T06:01:02.416Z,99996.16
2023-01-08T06:03:29.201Z,100001.53
2023-01-08T06:06:03.528Z,99985.81
2023-01-08T06:08:31.007Z,99980.31
2023-01-08T06:11:06.546Z,99970.97
2023-01-08T06:13:34.640Z,99972.78
2023-01-08T06:16:02.507Z,99970.03
2023-01-08T06:18:30.138Z,99970.22
2023-01-08T06:20:57.007Z,99952.06
2023-01-08T06:23:23.762Z,99955.38
2023-01-08T06:25:57.892Z,99960.66
2023-01-08T06:28:24.979Z,99947.53
2023-01-08T06:30:52.467Z,99939.69
2023-01-08T06:33:21.409Z,99936.97
2023-01-08T06:35:48.636Z,99931.09
2023-01-08T06:38:15.578Z,99929.63
2023-01-08T06:40:42.243Z,99921.25
2023-01-08T06:43:08.915Z,99922.00
2023-01-08T06:45:35.591Z,99914.88
2023-01-08T06:48:04.422Z,99911.44
2023-01-08T06:50:32.363Z,99909.47
2023-01-08T06:52:59.099Z,99903.31
2023-01-08T06:55:26.523Z,99903.09
2023-01-08T06:57:55.095Z,99899.88
2023-01-08T07:00:23.925Z,99896.09
2023-01-08T07:02:51.670Z,99886.25
2023-01-08T07:05:18.839Z,99889.06
2023-01-08T07:07:45.789Z,99889.78
2023-01-08T07:10:12.782Z,99893.88
2023-01-08T07:12:39.543Z,99896.34
2023-01-08T07:15:06.797Z,99895.84
2023-01-08T07:17:33.632Z,99891.03
2023-01-08T07:20:00.368Z,99888.72
2023-01-08T07:22:28.240Z,99887.47
2023-01-08T07:24:54.979Z,99886.34
2023-01-08T07:27:21.774Z,99876.16
2023-01-08T07:29:48.446Z,99875.41
2023-01-08T07:32:15.555Z,99877.38
2023-01-08T07:34:42.274Z,99876.25
2023-01-08T07:37:09.003Z,99874.28
2023-01-08T07:39:35.666Z,99880.59
2023-01-08T07:42:02.403Z,99882.41
2023-01-08T07:44:29.085Z,99879.59
2023-01-08T07:46:55.916Z,99879.84
2023-01-08T07:49:22.677Z,99880.09
2023-01-08T07:51:50.057Z,99872.94
2023-01-08T07:54:16.837Z,99863.97
2023-01-08T07:56:44.292Z,99863.47
2023-01-08T07:59:10.979Z,99860.41
2023-01-08T08:01:37.860Z,99859.16
2023-01-08T08:04:04.755Z,99857.69
2023-01-08T08:06:31.465Z,99852.38
2023-01-08T08:09:00.074Z,99843.16
2023-01-08T08:11:27.052Z,99838.09
2023-01-08T08:13:55.929Z,99838.47
2023-01-08T08:16:23.455Z,99839.72
2023-01-08T08:18:51.578Z,99831.84
2023-01-08T08:21:18.194Z,99839.97
2023-01-08T08:23:44.998Z,99826.41
2023-01-08T08:26:11.745Z,99822.09
2023-01-08T08:28:38.428Z,99823.97
2023-01-08T08:31:05.295Z,99822.59
2023-01-08T08:33:53.688Z,99817.91
2023-01-08T08:36:20.404Z,99806.09
2023-01-08T08:38:47.043Z,99806.00
2023-01-08T08:41:13.758Z,99804.38
2023-01-08T08:43:40.457Z,99790.31
2023-01-08T08:46:07.127Z,99787.13
2023-01-08T08:48:33.876Z,99782.34
2023-01-08T08:51:00.599Z,99781.94
2023-01-08T08:53:27.820Z,99777.25
2023-01-08T08:55:54.623Z,99789.22
2023-01-08T08:58:21.440Z,99781.22
2023-01-08T09:00:48.159Z,99772.84
2023-01-08T09:03:15.927Z,99776.31
2023-01-08T09:05:43.306Z,99773.34
2023-01-08T09:08:10.492Z,99765.72
2023-01-08T09:10:42.420Z,99773.75
2023-01-08T09:13:09.960Z,99768.09
2023-01-08T09:15:38.055Z,99767.44
2023-01-08T09:18:05.100Z,99755.13
2023-01-08T09:20:31.937Z,99745.16
2023-01-08T09:23:04.453Z,99750.22
2023-01-08T09:25:31.245Z,99735.47
2023-01-08T09:28:02.056Z,99726.88
2023-01-08T09:30:29.742Z,99713.94
2023-01-08T09:32:59.274Z,99697.03
2023-01-08T09:35:27.612Z,99676.59
2023-01-08T09:37:55.795Z,99682.03
2023-01-08T09:40:26.470Z,99669.13
2023-01-08T09:43:00.401Z,99663.72
2023-01-08T09:45:30.685Z,99652.88
2023-01-08T09:48:00.591Z,99645.84
2023-01-08T09:50:29.357Z,99628.88
2023-01-08T09:52:57.039Z,99616.94
2023-01-08T09:55:23.926Z,99604.47
2023-01-08T09:57:51.101Z,99608.69
2023-01-08T10:00:23.675Z,99599.97
2023-01-08T10:02:52.420Z,99578.78
2023-01-08T10:05:19.171Z,99573.38
2023-01-08T10:07:46.973Z,99563.84
2023-01-08T10:10:31.722Z,99548.31
2023-01-08T10:12:58.585Z,99538.75
2023-01-08T10:15:26.061Z,99524.28
2023-01-08T10:18:00.871Z,99523.09
2023-01-08T10:20:29.651Z,99519.94
2023-01-08T10:22:57.241Z,99504.88
2023-01-08T10:25:27.049Z,99494.44
2023-01-08T10:28:02.427Z,99482.59
2023-01-08T10:30:34.778Z,99464.81
2023-01-08T10:33:10.752Z,99446.53
2023-01-08T10:35:42.765Z,99452.88
2023-01-08T10:38:43.418Z,99434.09
2023-01-08T10:41:13.893Z,99427.28
2023-01-08T10:44:00.503Z,99425.84
2023-01-08T10:46:36.591Z,99412.75
2023-01-08T10:49:06.641Z,99415.91
2023-01-08T10:51:33.856Z,99408.50
2023-01-08T10:54:21.132Z,99406.09
2023-01-08T10:56:48.022Z,99399.09
2023-01-08T10:59:23.118Z,99391.41
2023-01-08T11:01:52.840Z,99389.97
2023-01-08T11:04:27.913Z,99377.72
2023-01-08T11:06:59.796Z,99377.28
2023-01-08T11:09:53.822Z,99355.47
2023-01-08T11:12:38.873Z,99355.63
2023-01-08T11:15:15.446Z,99334.81
2023-01-08T11:17:42.165Z,99339.13
2023-01-08T11:20:31.112Z,99340.94
2023-01-08T11:23:25.231Z,99328.38
2023-01-08T11:26:14.434Z,99329.25
2023-01-08T11:29:06.099Z,99330.13
2023-01-08T11:31:51.984Z,99326.28
2023-01-08T11:34:28.660Z,99333.59
2023-01-08T11:37:14.240Z,99335.59
2023-01-08T11:39:41.075Z,99335.16
2023-01-08T11:42:26.560Z,99332.56
2023-01-08T11:45:20.413Z,99335.28
2023-01-08T11:48:14.518Z,99330.25
2023-01-08T11:50:54.280Z,99333.69
2023-01-08T11:53:36.107Z,99326.72
2023-01-08T11:56:20.601Z,99320.31
2023-01-08T11:58:58.052Z,99315.75
2023-01-08T12:01:30.469Z,99304.63
2023-01-08T12:04:25.220Z,99303.34
2023-01-08T12:07:25.258Z,99309.03
2023-01-08T12:10:04.535Z,99298.47
2023-01-08T12:12:59.132Z,99301.19
2023-01-08T12:15:31.867Z,99300.63
2023-01-08T12:18:18.651Z,99295.94
2023-01-08T12:20:54.359Z,99291.63
2023-01-08T12:23:39.220Z,99298.59
2023-01-08T12:26:05.745Z,99306.16
2023-01-08T12:28:57.083Z,99300.44
2023-01-08T12:31:32.618Z,99298.44
2023-01-08T12:34:13.645Z,99312.44
2023-01-08T12:36:45.985Z,99308.88
2023-01-08T12:39:27.881Z,99310.16
2023-01-08T12:42:08.718Z,99317.88
2023-01-08T12:44:37.461Z,99312.72
2023-01-08T12:47:06.914Z,99317.56
2023-01-08T12:49:43.249Z,99313.06
2023-01-08T12:52:30.953Z,99324.44
2023-01-08T12:55:13.864Z,99322.34
2023-01-08T12:57:56.594Z,99338.16
2023-01-08T13:00:39.590Z,99340.31
2023-01-08T13:03:15.040Z,99346.88
2023-01-08T13:05:43.637Z,99355.00
2023-01-08T13:08:30.310Z,99366.69
2023-01-08T13:10:57.334Z,99376.28
2023-01-08T13:13:30.677Z,99386.69
2023-01-08T13:16:20.381Z,99393.56
2023-01-08T13:19:01.983Z,99409.81
2023-01-08T13:21:41.718Z,99416.13
2023-01-08T13:24:35.471Z,99425.09
2023-01-08T13:27:14.418Z,99432.38
2023-01-08T13:29:46.274Z,99448.06
2023-01-08T13:32:47.285Z,99466.22
2023-01-08T13:35:17.092Z,99467.78
2023-01-08T13:37:45.938Z,99465.16
2023-01-08T13:40:43.581Z,99476.63
2023-01-08T13:43:40.112Z,99484.41
2023-01-08T13:46:15.532Z,99486.13
2023-01-08T13:49:09.164Z,99497.25
2023-01-08T13:51:41.527Z,99504.75
2023-01-08T13:54:17.066Z,99514.19
2023-01-08T13:56:46.517Z,99508.81
2023-01-08T13:59:33.041Z,99523.16
2023-01-08T14:02:01.466Z,99521.81
2023-01-08T14:04:28.561Z,99534.28
2023-01-08T14:07:14.870Z,99540.25
2023-01-08T14:09:41.531Z,99547.03
2023-01-08T14:12:14.366Z,99542.06
2023-01-08T14:14:47.098Z,99552.91
2023-01-08T14:17:16.850Z,99553.13
2023-01-08T14:19:44.988Z,99556.81
2023-01-08T14:22:36.054Z,99555.91
2023-01-08T14:25:06.435Z,99561.22
2023-01-08T14:27:37.240Z,99566.38
2023-01-08T14:30:15.990Z,99559.50
2023-01-08T14:32:45.245Z,99570.94
2023-01-08T14:35:16.502Z,99567.97
2023-01-08T14:37:43.363Z,99575.09
2023-01-08T14:40:17.294Z,99574.63
2023-01-08T14:42:47.301Z,99573.28
2023-01-08T14:45:43.340Z,99573.53
2023-01-08T14:48:40.659Z,99573.16
2023-01-08T14:51:13.871Z,99574.41
2023-01-08T14:54:02.555Z,99573.59
2023-01-08T14:56:36.072Z,99583.34
2023-01-08T14:59:12.553Z,99585.75
2023-01-08T15:01:39.717Z,99584.56
2023-01-08T15:04:18.992Z,99599.31
2023-01-08T15:06:46.409Z,99588.88
2023-01-08T15:09:29.145Z,99596.88
2023-01-08T15:12:07.376Z,99600.31
2023-01-08T15:14:37.691Z,99600.47
2023-01-08T15:17:15.532Z,99603.56
2023-01-08T15:19:48.478Z,99611.16
2023-01-08T15:22:20.321Z,99606.72
2023-01-08T15:25:03.150Z,99600.09
2023-01-08T15:27:36.998Z,99597.25
2023-01-08T15:30:05.447Z,99598.25
2023-01-08T15:32:34.849Z,99601.31
2023-01-08T15:35:02.090Z,99584.50
2023-01-08T15:37:30.435Z,99589.91
2023-01-08T15:39:57.183Z,99581.41
2023-01-08T15:42:51.139Z,99581.03
2023-01-08T15:45:31.909Z,99583.50
2023-01-08T15:47:58.733Z,99585.06
2023-01-08T15:50:27.071Z,99576.50
2023-01-08T15:52:54.230Z,99574.50
2023-01-08T15:55:23.514Z,99570.84
2023-01-08T15:57:51.141Z,99568.84
2023-01-08T16:00:20.238Z,99572.53
2023-01-08T16:02:49.303Z,99566.50
2023-01-08T16:05:19.929Z,99569.16
2023-01-08T16:07:47.203Z,99559.22
2023-01-08T16:10:15.472Z,99550.91
2023-01-08T16:12:45.536Z,99548.66
2023-01-08T16:15:13.419Z,99546.44
2023-01-08T16:17:40.317Z,99554.50
2023-01-08T16:20:08.166Z,99554.00
2023-01-08T16:22:35.061Z,99542.72
2023-01-08T16:25:01.941Z,99534.72
2023-01-08T16:27:30.820Z,99526.34
2023-01-08T16:29:58.508Z,99514.84
2023-01-08T16:32:25.303Z,99520.63
2023-01-08T16:34:52.052Z,99519.16
2023-01-08T16:37:18.797Z,99523.81
2023-01-08T16:39:45.484Z,99525.16
2023-01-08T16:42:12.479Z,99514.75
2023-01-08T16:44:39.517Z,99520.38
2023-01-08T16:47:06.229Z,99522.19
2023-01-08T16:49:33.581Z,99516.81
2023-01-08T16:52:00.962Z,99517.28
2023-01-08T16:54:27.986Z,99510.81
2023-01-08T16:56:58.098Z,99507.38
2023-01-08T16:59:26.003Z,99513.03
2023-01-08T17:01:53.294Z,99504.78
2023-01-08T17:04:20.542Z,99503.22
2023-01-08T17:06:47.521Z,99498.41
2023-01-08T17:09:14.831Z,99499.03
2023-01-08T17:11:42.451Z,99501.84
2023-01-08T17:14:09.888Z,99506.25
2023-01-08T17:16:36.949Z,99501.59
2023-01-08T17:19:04.063Z,99489.56
2023-01-08T17:21:30.815Z,99483.19
2023-01-08T17:23:57.475Z,99480.88
2023-01-08T17:26:24.214Z,99479.25
2023-01-08T17:28:51.302Z,99459.88
2023-01-08T17:31:20.218Z,99467.97
2023-01-08T17:33:52.030Z,99463.31
2023-01-08T17:36:25.344Z,99460.38
2023-01-08T17:38:56.384Z,99466.03
2023-01-08T17:41:41.507Z,99452.84
2023-01-08T17:44:11.712Z,99464.78
2023-01-08T17:46:42.344Z,99452.50
2023-01-08T17:49:11.291Z,99453.97
2023-01-08T17:51:40.708Z,99445.13
2023-01-08T17:54:17.231Z,99449.41
2023-01-08T17:56:44.473Z,99446.06
2023-01-08T17:59:16.068Z,99440.06
2023-01-08T18:01:45.193Z,99436.22
2023-01-08T18:04:13.295Z,99430.56
2023-01-08T18:06:40.469Z,99443.69
2023-01-08T18:09:09.596Z,99438.56
2023-01-08T18:11:36.393Z,99433.00
2023-01-08T18:14:03.329Z,99432.28
2023-01-08T18:16:32.333Z,99445.31
2023-01-08T18:19:00.324Z,99440.63
2023-01-08T18:21:27.873Z,99440.38
2023-01-08T18:23:54.883Z,99454.63
2023-01-08T18:26:22.924Z,99458.19
2023-01-08T18:28:52.028Z,99447.91
2023-01-08T18:31:19.193Z,99445.06
2023-01-08T18:33:48.760Z,99434.13
2023-01-08T18:36:15.522Z,99443.44
2023-01-08T18:38:44.195Z,99456.13
2023-01-08T18:41:36.675Z,99449.00
2023-01-08T18:44:10.182Z,99459.81
2023-01-08T18:46:37.833Z,99455.03
2023-01-08T18:49:05.054Z,99453.16
2023-01-08T18:51:32.454Z,99458.09
2023-01-08T18:53:59.312Z,99461.78
2023-01-08T18:56:32.093Z,99451.00
2023-01-08T18:58:58.954Z,99453.44
2023-01-08T19:01:26.719Z,99453.09
2023-01-08T19:03:53.619Z,99431.84
2023-01-08T19:06:20.731Z,99414.22
2023-01-08T19:08:47.809Z,99413.88
2023-01-08T19:11:15.074Z,99414.88
2023-01-08T19:13:42.155Z,99418.94
2023-01-08T19:16:12.215Z,99397.94
2023-01-08T19:18:39.815Z,99391.06
2023-01-08T19:21:08.105Z,99384.03
2023-01-08T19:23:35.020Z,99360.44
2023-01-08T19:26:06.661Z,99353.38
2023-01-08T19:28:33.625Z,99338.78
2023-01-08T19:31:01.333Z,99332.13
2023-01-08T19:33:28.313Z,99326.84
2023-01-08T19:35:54.996Z,99317.88
2023-01-08T19:38:22.113Z,99318.94
2023-01-08T19:40:48.894Z,99308.13
2023-01-08T19:43:34.126Z,99294.66
2023-01-08T19:46:06.119Z,99282.50
2023-01-08T19:48:34.045Z,99277.75
2023-01-08T19:51:09.136Z,99275.50
2023-01-08T19:53:36.268Z,99266.03
2023-01-08T19:56:12.629Z,99245.50
2023-01-08T19:58:42.556Z,99234.97
2023-01-08T20:01:14.706Z,99230.38
2023-01-08T20:03:44.744Z,99228.34
2023-01-08T20:06:16.352Z,99216.84
2023-01-08T20:08:44.880Z,99215.59
2023-01-08T20:11:15.668Z,99203.81
2023-01-08T20:13:43.279Z,99208.75
2023-01-08T20:16:13.660Z,99204.78
2023-01-08T20:18:40.875Z,99197.09
2023-01-08T20:21:07.525Z,99190.19
2023-01-08T20:23:36.441Z,99185.13
2023-01-08T20:26:08.925Z,99172.53
2023-01-08T20:28:37.537Z,99166.78
2023-01-08T20:31:08.690Z,99166.47
2023-01-08T20:33:35.527Z,99169.81
2023-01-08T20:36:07.519Z,99167.25
2023-01-08T20:38:34.327Z,99159.53
2023-01-08T20:41:01.064Z,99159.25
2023-01-08T20:43:28.716Z,99160.44
2023-01-08T20:45:55.557Z,99152.94
2023-01-08T20:48:22.332Z,99145.50
2023-01-08T20:51:00.362Z,99154.53
2023-01-08T20:53:29.408Z,99145.91
2023-01-08T20:56:07.775Z,99133.69
2023-01-08T20:58:37.237Z,99128.28
2023-01-08T21:01:09.791Z,99120.31
2023-01-08T21:03:37.432Z,99121.34
2023-01-08T21:06:13.724Z,99108.06
2023-01-08T21:08:41.715Z,99103.91
2023-01-08T21:11:10.091Z,99097.41
2023-01-08T21:13:37.760Z,99100.41
2023-01-08T21:16:08.207Z,99088.13
2023-01-08T21:18:35.409Z,99089.13
2023-01-08T21:21:04.527Z,99091.25
2023-01-08T21:23:33.430Z,99085.69
2023-01-08T21:26:03.224Z,99080.03
2023-01-08T21:28:29.974Z,99079.09
2023-01-08T21:31:05.575Z,99077.75
2023-01-08T21:33:33.065Z,99072.00
2023-01-08T21:36:07.653Z,99064.66
2023-01-08T21:38:35.315Z,99068.16
2023-01-08T21:41:06.591Z,99062.38
2023-01-08T21:43:52.201Z,99057.47
2023-01-08T21:46:20.275Z,99054.50
2023-01-08T21:48:51.618Z,99055.88
2023-01-08T21:51:36.903Z,99045.81
2023-01-08T21:54:04.409Z,99038.75
2023-01-08T21:56:31.412Z,99040.88
2023-01-08T21:58:58.177Z,99038.41
2023-01-08T22:01:24.973Z,99034.59
2023-01-08T22:03:51.877Z,99035.72
2023-01-08T22:06:18.666Z,99029.72
2023-01-08T22:08:50.198Z,99024.34
2023-01-08T22:11:16.943Z,99028.13
2023-01-08T22:13:43.656Z,99028.78
2023-01-08T22:16:10.861Z,99025.44
2023-01-08T22:18:38.042Z,99029.38
2023-01-08T22:21:10.429Z,99025.38
2023-01-08T22:23:37.863Z,99024.16
2023-01-08T22:26:10.266Z,99025.25
2023-01-08T22:28:40.387Z,99019.28
2023-01-08T22:31:09.010Z,99014.72
2023-01-08T22:33:36.863Z,99004.66
2023-01-08T22:36:04.537Z,98999.69
2023-01-08T22:38:31.517Z,98990.22
2023-01-08T22:40:58.269Z,98998.59
2023-01-08T22:43:25.037Z,98997.97
2023-01-08T22:45:56.370Z,98989.66
2023-01-08T22:48:23.785Z,98988.19
2023-01-08T22:50:53.918Z,98982.94
2023-01-08T22:53:20.815Z,98976.94
2023-01-08T22:55:48.521Z,98964.94
2023-01-08T22:58:16.367Z,98965.31
2023-01-08T23:00:43.813Z,98967.50
2023-01-08T23:03:11.380Z,98963.13
2023-01-08T23:05:38.104Z,98962.25
2023-01-08T23:08:05.740Z,98959.44
2023-01-08T23:10:32.960Z,98940.94
2023-01-08T23:13:00.330Z,98944.88
2023-01-08T23:15:27.100Z,98934.34
2023-01-08T23:17:53.961Z,98931.34
2023-01-08T23:20:23.314Z,98926.22
2023-01-08T23:22:50.212Z,98924.78
2023-01-08T23:25:17.101Z,98920.13
2023-01-08T23:27:44.908Z,98915.81
2023-01-08T23:30:12.491Z,98914.00
2023-01-08T23:32:39.908Z,98907.53
2023-01-08T23:35:06.868Z,98894.06
2023-01-08T23:37:34.382Z,98894.69
2023-01-08T23:40:01.154Z,98901.38
2023-01-08T23:42:29.774Z,98896.38
2023-01-08T23:44:56.696Z,98899.56
2023-01-08T23:47:23.763Z,98900.69
2023-01-08T23:49:50.493Z,98883.00
2023-01-08T23:52:17.147Z,98888.31
2023-01-08T23:54:43.902Z,98861.88
2023-01-08T23:57:10.714Z,98853.88
2023-01-08T23:59:37.435Z,98844.34
